Buoy 52912

sailwx.info

Track history (hours):
 
Tides and Currents Weather Stations Pressure Air Temp Water Temp Dewpoint Dewpoint Depression Visibility Wind Speed Wind Dir Waves Ship Positions

Drifting buoy 52912

Last reported at 2014-Aug-28 23:00 UTC. Time now 2014-Aug-29 01:32 UTC.
Position N 08°06' E 158°36'.

Water temperature 30.1 ° C

Date/timePositionNaut miles runAvg speedWind from/ knotsBaromVisibWave heightAir tempDewpointWater temp
2014-Aug-28 23:00N 08°06' E 158°36'3 0.6 30.1
2014-Aug-28 18:00N 08°04' E 158°38'1 0.3 30.1
2014-Aug-28 15:00N 08°03' E 158°39'0 0.0 30.1
2014-Aug-28 14:00N 08°03' E 158°39'2 0.4 30.1
2014-Aug-28 10:00N 08°03' E 158°40'2 0.3 30.2
2014-Aug-28 05:00N 08°03' E 158°42'1 0.6 30.4
2014-Aug-28 04:00N 08°03' E 158°42'0 0.0 30.4
2014-Aug-28 03:00N 08°03' E 158°42'2 0.3 30.4
2014-Aug-27 22:00N 08°05' E 158°43'0 0.0 30.1
2014-Aug-27 21:00N 08°05' E 158°43'2 0.8 30.1
2014-Aug-27 19:00N 08°04' E 158°44'1 0.2 30.1
2014-Aug-27 15:00N 08°04' E 158°45'1 0.2 30.2
2014-Aug-27 12:00N 08°04' E 158°44'0 0.0 30.2
2014-Aug-27 10:00N 08°04' E 158°44'0 0.0 30.3
2014-Aug-27 09:00N 08°04' E 158°44'2 0.6 30.3
2014-Aug-27 05:00N 08°04' E 158°47'2 2.5 30.8
2014-Aug-27 04:00N 08°05' E 158°49'0 0.1 30.8
2014-Aug-27 03:00N 08°05' E 158°49'2 0.6 30.9
2014-Aug-27 00:00N 08°06' E 158°47'1 0.2 30.3
2014-Aug-26 20:00N 08°06' E 158°48'1 0.6 30.0
2014-Aug-26 19:00N 08°06' E 158°49'0 0.1 30.0
2014-Aug-26 16:00N 08°06' E 158°49'0 0.5 30.1
2014-Aug-26 15:00N 08°07' E 158°48'1 1.2 30.1
2014-Aug-26 14:00N 08°07' E 158°47'1 0.1 30.1
2014-Aug-26 06:00N 08°08' E 158°48'0 0.0 30.3
2014-Aug-26 03:00N 08°08' E 158°48'0 0.0 30.2
2014-Aug-25 19:00N 08°08' E 158°48'0 0.5 30.0
2014-Aug-25 18:00N 08°08' E 158°49'0 0.0 30.0
2014-Aug-25 16:00N 08°08' E 158°49'0 0.3 30.1
2014-Aug-25 15:00N 08°08' E 158°49'1 0.2 30.1
2014-Aug-25 11:00N 08°07' E 158°48'1 0.6 30.2
2014-Aug-25 10:00N 08°07' E 158°48'0 0.0 30.1
2014-Aug-25 09:00N 08°07' E 158°48'1 0.7 30.1
2014-Aug-25 07:00N 08°06' E 158°49'0 0.0 30.3
2014-Aug-25 06:00N 08°06' E 158°49'2 0.3 30.3
2014-Aug-24 23:00N 08°04' E 158°50'0 0.1 30.1
2014-Aug-24 22:00N 08°04' E 158°50'2 0.6 30.0
2014-Aug-24 19:00N 08°03' E 158°52'1 0.8 30.0
2014-Aug-24 18:00N 08°03' E 158°53'0 0.1 30.0
2014-Aug-24 17:00N 08°03' E 158°53'0 0.0 30.0
2014-Aug-24 16:00N 08°03' E 158°53'0 0.4 30.0
2014-Aug-24 15:00N 08°03' E 158°53'0 0.1 30.0
2014-Aug-24 11:00N 08°04' E 158°53'1 0.6 30.0
2014-Aug-24 09:00N 08°04' E 158°54'2 0.6 30.0
2014-Aug-24 06:00N 08°03' E 158°55'1 0.2 30.2
2014-Aug-24 03:00N 08°04' E 158°55'1 0.1 30.3
2014-Aug-23 20:00N 08°03' E 158°55'1 1.4 29.9
2014-Aug-23 19:00N 08°03' E 158°57'0 0.1 30.0
2014-Aug-23 16:00N 08°04' E 158°57'0 0.1 30.0
2014-Aug-23 15:00N 08°04' E 158°57'1 0.2 30.0
2014-Aug-23 10:00N 08°05' E 158°56'0 0.0 30.2
2014-Aug-23 09:00N 08°05' E 158°56'2 0.7 30.4
2014-Aug-23 06:00N 08°05' E 158°58'0 0.0 31.0
2014-Aug-23 04:00N 08°05' E 158°58'0 0.2 32.1
2014-Aug-23 02:00N 08°05' E 158°59'0 0.4 32.2
2014-Aug-23 01:00N 08°05' E 158°59'0 0.1 32.1
2014-Aug-22 23:00N 08°06' E 158°58'1 0.2 30.4
2014-Aug-22 19:00N 08°05' E 158°59'1 0.3 29.8
2014-Aug-22 17:00N 08°05' E 158°60'0 0.1 29.9
2014-Aug-22 16:00N 08°05' E 158°60'0 0.0 29.9
2014-Aug-22 15:00N 08°05' E 158°60'1 0.2 29.9
2014-Aug-22 12:00N 08°05' E 158°59'0 0.1 30.0
2014-Aug-22 07:00N 08°05' E 158°60'0 0.0 30.3
2014-Aug-22 06:00N 08°05' E 158°60'1 0.4 30.3
2014-Aug-22 04:00N 08°05' E 159°01'0 0.0 30.2
2014-Aug-22 03:00N 08°05' E 159°01'4 0.4 30.1
2014-Aug-21 18:00N 08°04' E 159°04'0 0.0 30.0
2014-Aug-21 17:00N 08°04' E 159°04'3 0.4 30.0
2014-Aug-21 10:00N 08°04' E 159°07'3 0.7 30.0
2014-Aug-21 06:00N 08°05' E 159°09'0 0.0 30.4
2014-Aug-21 05:00N 08°05' E 159°09'0 0.5 30.5
2014-Aug-21 04:00N 08°05' E 159°09'1 0.3 30.6
2014-Aug-21 02:00N 08°05' E 159°10'3 0.5 30.6
2014-Aug-20 19:00N 08°08' E 159°12'0 0.2 29.9
2014-Aug-20 17:00N 08°09' E 159°12'1 0.4 29.9
2014-Aug-20 15:00N 08°09' E 159°12'2 0.4 29.9
2014-Aug-20 11:00N 08°11' E 159°13'1 1.4 30.1
2014-Aug-20 10:00N 08°12' E 159°12'0 0.0 30.1
2014-Aug-20 00:00N 08°12' E 159°13'0 0.1 30.2
2014-Aug-19 23:00N 08°12' E 159°13'1 0.1 30.1
2014-Aug-19 15:00N 08°12' E 159°13'0 0.0 30.4
2014-Aug-19 14:00N 08°12' E 159°13'2 0.3 30.6
2014-Aug-19 06:00N 08°12' E 159°15'1 0.6 33.0
2014-Aug-19 04:00N 08°12' E 159°16'0 0.0 33.8
2014-Aug-19 03:00N 08°12' E 159°16'   33.5
Track history (hours):
 
Tides and Currents Weather Stations Pressure Air Temp Water Temp Dewpoint Dewpoint Depression Visibility Wind Speed Wind Dir Waves Ship Positions

Drifting buoy 52912

Last reported at 2014-Aug-28 23:00 UTC. Time now 2014-Aug-29 01:32 UTC.
Position N 08°06' E 158°36'.

Water temperature 30.1 ° C

Date/timePositionNaut miles runAvg speedWind from/ knotsBaromVisibWave heightAir tempDewpointWater temp
2014-Aug-28 23:00N 08°06' E 158°36'3 0.6 30.1
2014-Aug-28 18:00N 08°04' E 158°38'1 0.3 30.1
2014-Aug-28 15:00N 08°03' E 158°39'0 0.0 30.1
2014-Aug-28 14:00N 08°03' E 158°39'2 0.4 30.1
2014-Aug-28 10:00N 08°03' E 158°40'2 0.3 30.2
2014-Aug-28 05:00N 08°03' E 158°42'1 0.6 30.4
2014-Aug-28 04:00N 08°03' E 158°42'0 0.0 30.4
2014-Aug-28 03:00N 08°03' E 158°42'2 0.3 30.4
2014-Aug-27 22:00N 08°05' E 158°43'0 0.0 30.1
2014-Aug-27 21:00N 08°05' E 158°43'2 0.8 30.1
2014-Aug-27 19:00N 08°04' E 158°44'1 0.2 30.1
2014-Aug-27 15:00N 08°04' E 158°45'1 0.2 30.2
2014-Aug-27 12:00N 08°04' E 158°44'0 0.0 30.2
2014-Aug-27 10:00N 08°04' E 158°44'0 0.0 30.3
2014-Aug-27 09:00N 08°04' E 158°44'2 0.6 30.3
2014-Aug-27 05:00N 08°04' E 158°47'2 2.5 30.8
2014-Aug-27 04:00N 08°05' E 158°49'0 0.1 30.8
2014-Aug-27 03:00N 08°05' E 158°49'2 0.6 30.9
2014-Aug-27 00:00N 08°06' E 158°47'1 0.2 30.3
2014-Aug-26 20:00N 08°06' E 158°48'1 0.6 30.0
2014-Aug-26 19:00N 08°06' E 158°49'0 0.1 30.0
2014-Aug-26 16:00N 08°06' E 158°49'0 0.5 30.1
2014-Aug-26 15:00N 08°07' E 158°48'1 1.2 30.1
2014-Aug-26 14:00N 08°07' E 158°47'1 0.1 30.1
2014-Aug-26 06:00N 08°08' E 158°48'0 0.0 30.3
2014-Aug-26 03:00N 08°08' E 158°48'0 0.0 30.2
2014-Aug-25 19:00N 08°08' E 158°48'0 0.5 30.0
2014-Aug-25 18:00N 08°08' E 158°49'0 0.0 30.0
2014-Aug-25 16:00N 08°08' E 158°49'0 0.3 30.1
2014-Aug-25 15:00N 08°08' E 158°49'1 0.2 30.1
2014-Aug-25 11:00N 08°07' E 158°48'1 0.6 30.2
2014-Aug-25 10:00N 08°07' E 158°48'0 0.0 30.1
2014-Aug-25 09:00N 08°07' E 158°48'1 0.7 30.1
2014-Aug-25 07:00N 08°06' E 158°49'0 0.0 30.3
2014-Aug-25 06:00N 08°06' E 158°49'2 0.3 30.3
2014-Aug-24 23:00N 08°04' E 158°50'0 0.1 30.1
2014-Aug-24 22:00N 08°04' E 158°50'2 0.6 30.0
2014-Aug-24 19:00N 08°03' E 158°52'1 0.8 30.0
2014-Aug-24 18:00N 08°03' E 158°53'0 0.1 30.0
2014-Aug-24 17:00N 08°03' E 158°53'0 0.0 30.0
2014-Aug-24 16:00N 08°03' E 158°53'0 0.4 30.0
2014-Aug-24 15:00N 08°03' E 158°53'0 0.1 30.0
2014-Aug-24 11:00N 08°04' E 158°53'1 0.6 30.0
2014-Aug-24 09:00N 08°04' E 158°54'2 0.6 30.0
2014-Aug-24 06:00N 08°03' E 158°55'1 0.2 30.2
2014-Aug-24 03:00N 08°04' E 158°55'1 0.1 30.3
2014-Aug-23 20:00N 08°03' E 158°55'1 1.4 29.9
2014-Aug-23 19:00N 08°03' E 158°57'0 0.1 30.0
2014-Aug-23 16:00N 08°04' E 158°57'0 0.1 30.0
2014-Aug-23 15:00N 08°04' E 158°57'1 0.2 30.0
2014-Aug-23 10:00N 08°05' E 158°56'0 0.0 30.2
2014-Aug-23 09:00N 08°05' E 158°56'2 0.7 30.4
2014-Aug-23 06:00N 08°05' E 158°58'0 0.0 31.0
2014-Aug-23 04:00N 08°05' E 158°58'0 0.2 32.1
2014-Aug-23 02:00N 08°05' E 158°59'0 0.4 32.2
2014-Aug-23 01:00N 08°05' E 158°59'0 0.1 32.1
2014-Aug-22 23:00N 08°06' E 158°58'1 0.2 30.4
2014-Aug-22 19:00N 08°05' E 158°59'1 0.3 29.8
2014-Aug-22 17:00N 08°05' E 158°60'0 0.1 29.9
2014-Aug-22 16:00N 08°05' E 158°60'0 0.0 29.9
2014-Aug-22 15:00N 08°05' E 158°60'1 0.2 29.9
2014-Aug-22 12:00N 08°05' E 158°59'0 0.1 30.0
2014-Aug-22 07:00N 08°05' E 158°60'0 0.0 30.3
2014-Aug-22 06:00N 08°05' E 158°60'1 0.4 30.3
2014-Aug-22 04:00N 08°05' E 159°01'0 0.0 30.2
2014-Aug-22 03:00N 08°05' E 159°01'4 0.4 30.1
2014-Aug-21 18:00N 08°04' E 159°04'0 0.0 30.0
2014-Aug-21 17:00N 08°04' E 159°04'3 0.4 30.0
2014-Aug-21 10:00N 08°04' E 159°07'3 0.7 30.0
2014-Aug-21 06:00N 08°05' E 159°09'0 0.0 30.4
2014-Aug-21 05:00N 08°05' E 159°09'0 0.5 30.5
2014-Aug-21 04:00N 08°05' E 159°09'1 0.3 30.6
2014-Aug-21 02:00N 08°05' E 159°10'3 0.5 30.6
2014-Aug-20 19:00N 08°08' E 159°12'0 0.2 29.9
2014-Aug-20 17:00N 08°09' E 159°12'1 0.4 29.9
2014-Aug-20 15:00N 08°09' E 159°12'2 0.4 29.9
2014-Aug-20 11:00N 08°11' E 159°13'1 1.4 30.1
2014-Aug-20 10:00N 08°12' E 159°12'0 0.0 30.1
2014-Aug-20 00:00N 08°12' E 159°13'0 0.1 30.2
2014-Aug-19 23:00N 08°12' E 159°13'1 0.1 30.1
2014-Aug-19 15:00N 08°12' E 159°13'0 0.0 30.4
2014-Aug-19 14:00N 08°12' E 159°13'2 0.3 30.6
2014-Aug-19 06:00N 08°12' E 159°15'1 0.6 33.0
2014-Aug-19 04:00N 08°12' E 159°16'0 0.0 33.8
2014-Aug-19 03:00N 08°12' E 159°16'   33.5

Dump ship's entire track history